sensor_id;sensor_type;location;lat;lon;timestamp;P1;durP1;ratioP1;P2;durP2;ratioP2
30998;SDS011;20549;50.042;8.968;2023-07-30T00:02:05;1.92;;;1.80;;
30998;SDS011;20549;50.042;8.968;2023-07-30T00:04:31;2.35;;;1.82;;
30998;SDS011;20549;50.042;8.968;2023-07-30T00:06:58;2.12;;;1.90;;
30998;SDS011;20549;50.042;8.968;2023-07-30T00:09:24;1.87;;;1.77;;
30998;SDS011;20549;50.042;8.968;2023-07-30T00:11:51;2.25;;;2.05;;
30998;SDS011;20549;50.042;8.968;2023-07-30T00:14:18;1.87;;;1.77;;
30998;SDS011;20549;50.042;8.968;2023-07-30T00:16:44;2.00;;;1.85;;
30998;SDS011;20549;50.042;8.968;2023-07-30T00:19:11;2.10;;;1.90;;
30998;SDS011;20549;50.042;8.968;2023-07-30T00:21:37;2.75;;;2.25;;
30998;SDS011;20549;50.042;8.968;2023-07-30T00:24:04;4.33;;;2.02;;
30998;SDS011;20549;50.042;8.968;2023-07-30T00:26:30;2.40;;;2.20;;
30998;SDS011;20549;50.042;8.968;2023-07-30T00:28:57;2.45;;;2.15;;
30998;SDS011;20549;50.042;8.968;2023-07-30T00:31:24;2.20;;;2.00;;
30998;SDS011;20549;50.042;8.968;2023-07-30T00:33:50;2.10;;;2.00;;
30998;SDS011;20549;50.042;8.968;2023-07-30T00:36:17;2.42;;;2.22;;
30998;SDS011;20549;50.042;8.968;2023-07-30T00:38:43;2.87;;;1.90;;
30998;SDS011;20549;50.042;8.968;2023-07-30T00:41:10;2.30;;;2.10;;
30998;SDS011;20549;50.042;8.968;2023-07-30T00:43:37;2.10;;;2.00;;
30998;SDS011;20549;50.042;8.968;2023-07-30T00:46:03;2.85;;;2.60;;
30998;SDS011;20549;50.042;8.968;2023-07-30T00:48:30;3.50;;;2.02;;
30998;SDS011;20549;50.042;8.968;2023-07-30T00:50:56;4.65;;;2.47;;
30998;SDS011;20549;50.042;8.968;2023-07-30T00:53:23;2.45;;;2.25;;
30998;SDS011;20549;50.042;8.968;2023-07-30T00:55:50;6.05;;;2.47;;
30998;SDS011;20549;50.042;8.968;2023-07-30T00:58:16;2.83;;;2.00;;
30998;SDS011;20549;50.042;8.968;2023-07-30T01:00:43;2.45;;;2.25;;
30998;SDS011;20549;50.042;8.968;2023-07-30T01:03:09;2.12;;;2.00;;
30998;SDS011;20549;50.042;8.968;2023-07-30T01:05:36;2.58;;;2.37;;
30998;SDS011;20549;50.042;8.968;2023-07-30T01:08:03;2.17;;;2.00;;
30998;SDS011;20549;50.042;8.968;2023-07-30T01:10:30;2.00;;;1.90;;
30998;SDS011;20549;50.042;8.968;2023-07-30T01:12:56;2.05;;;1.70;;
30998;SDS011;20549;50.042;8.968;2023-07-30T01:15:22;2.00;;;1.90;;
30998;SDS011;20549;50.042;8.968;2023-07-30T01:17:49;2.08;;;1.90;;
30998;SDS011;20549;50.042;8.968;2023-07-30T01:20:15;2.12;;;1.92;;
30998;SDS011;20549;50.042;8.968;2023-07-30T01:22:42;2.20;;;2.02;;
30998;SDS011;20549;50.042;8.968;2023-07-30T01:25:09;1.90;;;1.80;;
30998;SDS011;20549;50.042;8.968;2023-07-30T01:27:37;1.98;;;1.87;;
30998;SDS011;20549;50.042;8.968;2023-07-30T01:30:21;2.33;;;2.12;;
30998;SDS011;20549;50.042;8.968;2023-07-30T01:32:34;2.80;;;2.40;;
30998;SDS011;20549;50.042;8.968;2023-07-30T01:35:01;3.02;;;1.92;;
30998;SDS011;20549;50.042;8.968;2023-07-30T01:37:27;2.08;;;1.90;;
30998;SDS011;20549;50.042;8.968;2023-07-30T01:39:54;2.25;;;2.00;;
30998;SDS011;20549;50.042;8.968;2023-07-30T01:42:20;2.33;;;2.12;;
30998;SDS011;20549;50.042;8.968;2023-07-30T01:44:47;2.27;;;2.10;;
30998;SDS011;20549;50.042;8.968;2023-07-30T01:47:14;1.67;;;1.57;;
30998;SDS011;20549;50.042;8.968;2023-07-30T01:49:40;2.12;;;2.02;;
30998;SDS011;20549;50.042;8.968;2023-07-30T01:52:07;2.58;;;1.90;;
30998;SDS011;20549;50.042;8.968;2023-07-30T01:54:33;2.20;;;2.08;;
30998;SDS011;20549;50.042;8.968;2023-07-30T01:57:00;2.25;;;2.05;;
30998;SDS011;20549;50.042;8.968;2023-07-30T01:59:27;2.35;;;2.10;;
30998;SDS011;20549;50.042;8.968;2023-07-30T02:01:53;3.30;;;2.02;;
30998;SDS011;20549;50.042;8.968;2023-07-30T02:04:20;2.98;;;2.15;;
30998;SDS011;20549;50.042;8.968;2023-07-30T02:06:46;1.98;;;1.87;;
30998;SDS011;20549;50.042;8.968;2023-07-30T02:09:13;2.62;;;1.92;;
30998;SDS011;20549;50.042;8.968;2023-07-30T02:11:40;2.22;;;2.00;;
30998;SDS011;20549;50.042;8.968;2023-07-30T02:14:06;1.80;;;1.70;;
30998;SDS011;20549;50.042;8.968;2023-07-30T02:16:33;1.80;;;1.70;;
30998;SDS011;20549;50.042;8.968;2023-07-30T02:18:59;1.72;;;1.62;;
30998;SDS011;20549;50.042;8.968;2023-07-30T02:21:26;1.92;;;1.82;;
30998;SDS011;20549;50.042;8.968;2023-07-30T02:23:53;1.80;;;1.60;;
30998;SDS011;20549;50.042;8.968;2023-07-30T02:26:19;1.87;;;1.77;;
30998;SDS011;20549;50.042;8.968;2023-07-30T02:28:46;1.70;;;1.60;;
30998;SDS011;20549;50.042;8.968;2023-07-30T02:31:12;1.80;;;1.50;;
30998;SDS011;20549;50.042;8.968;2023-07-30T02:33:39;1.80;;;1.70;;
30998;SDS011;20549;50.042;8.968;2023-07-30T02:36:05;1.98;;;1.40;;
30998;SDS011;20549;50.042;8.968;2023-07-30T02:38:32;1.50;;;1.40;;
30998;SDS011;20549;50.042;8.968;2023-07-30T02:40:59;2.75;;;1.60;;
30998;SDS011;20549;50.042;8.968;2023-07-30T02:43:25;1.65;;;1.55;;
30998;SDS011;20549;50.042;8.968;2023-07-30T02:45:52;1.80;;;1.60;;
30998;SDS011;20549;50.042;8.968;2023-07-30T02:48:18;2.72;;;1.65;;
30998;SDS011;20549;50.042;8.968;2023-07-30T02:50:45;2.10;;;1.90;;
30998;SDS011;20549;50.042;8.968;2023-07-30T02:53:12;1.82;;;1.50;;
30998;SDS011;20549;50.042;8.968;2023-07-30T02:55:38;1.92;;;1.37;;
30998;SDS011;20549;50.042;8.968;2023-07-30T02:58:05;1.30;;;1.30;;
30998;SDS011;20549;50.042;8.968;2023-07-30T03:00:31;1.42;;;1.37;;
30998;SDS011;20549;50.042;8.968;2023-07-30T03:02:58;1.70;;;1.60;;
30998;SDS011;20549;50.042;8.968;2023-07-30T03:05:26;1.70;;;1.60;;
30998;SDS011;20549;50.042;8.968;2023-07-30T03:07:51;1.70;;;1.60;;
30998;SDS011;20549;50.042;8.968;2023-07-30T03:10:18;1.92;;;1.82;;
30998;SDS011;20549;50.042;8.968;2023-07-30T03:12:44;1.60;;;1.50;;
30998;SDS011;20549;50.042;8.968;2023-07-30T03:15:11;2.55;;;1.40;;
30998;SDS011;20549;50.042;8.968;2023-07-30T03:17:37;2.35;;;1.57;;
30998;SDS011;20549;50.042;8.968;2023-07-30T03:20:04;3.62;;;1.55;;
30998;SDS011;20549;50.042;8.968;2023-07-30T03:22:31;1.60;;;1.47;;
30998;SDS011;20549;50.042;8.968;2023-07-30T03:24:57;2.87;;;1.35;;
30998;SDS011;20549;50.042;8.968;2023-07-30T03:27:24;3.17;;;1.75;;
30998;SDS011;20549;50.042;8.968;2023-07-30T03:29:51;1.62;;;1.52;;
30998;SDS011;20549;50.042;8.968;2023-07-30T03:32:17;1.30;;;1.20;;
30998;SDS011;20549;50.042;8.968;2023-07-30T03:34:44;1.42;;;1.20;;
30998;SDS011;20549;50.042;8.968;2023-07-30T03:37:10;1.32;;;1.30;;
30998;SDS011;20549;50.042;8.968;2023-07-30T03:39:37;1.22;;;1.12;;
30998;SDS011;20549;50.042;8.968;2023-07-30T03:42:03;1.27;;;1.17;;
30998;SDS011;20549;50.042;8.968;2023-07-30T03:44:30;1.30;;;1.30;;
30998;SDS011;20549;50.042;8.968;2023-07-30T03:46:57;1.70;;;1.52;;
30998;SDS011;20549;50.042;8.968;2023-07-30T03:49:23;1.45;;;1.20;;
30998;SDS011;20549;50.042;8.968;2023-07-30T03:51:50;1.47;;;1.37;;
30998;SDS011;20549;50.042;8.968;2023-07-30T03:54:16;1.37;;;1.37;;
30998;SDS011;20549;50.042;8.968;2023-07-30T03:56:43;1.32;;;1.30;;
30998;SDS011;20549;50.042;8.968;2023-07-30T03:59:10;1.30;;;1.20;;
30998;SDS011;20549;50.042;8.968;2023-07-30T04:01:36;1.70;;;1.60;;
30998;SDS011;20549;50.042;8.968;2023-07-30T04:04:03;1.12;;;1.12;;
30998;SDS011;20549;50.042;8.968;2023-07-30T04:06:29;2.85;;;1.30;;
30998;SDS011;20549;50.042;8.968;2023-07-30T04:08:56;1.70;;;1.50;;
30998;SDS011;20549;50.042;8.968;2023-07-30T04:11:23;1.57;;;1.47;;
30998;SDS011;20549;50.042;8.968;2023-07-30T04:13:49;2.58;;;1.60;;
30998;SDS011;20549;50.042;8.968;2023-07-30T04:16:16;1.50;;;1.40;;
30998;SDS011;20549;50.042;8.968;2023-07-30T04:18:42;1.90;;;1.70;;
30998;SDS011;20549;50.042;8.968;2023-07-30T04:21:09;1.85;;;1.75;;
30998;SDS011;20549;50.042;8.968;2023-07-30T04:23:35;1.60;;;1.50;;
30998;SDS011;20549;50.042;8.968;2023-07-30T04:26:02;1.45;;;1.35;;
30998;SDS011;20549;50.042;8.968;2023-07-30T04:28:29;1.72;;;1.62;;
30998;SDS011;20549;50.042;8.968;2023-07-30T04:30:55;2.20;;;1.47;;
30998;SDS011;20549;50.042;8.968;2023-07-30T04:33:22;1.22;;;1.22;;
30998;SDS011;20549;50.042;8.968;2023-07-30T04:35:48;1.57;;;1.47;;
30998;SDS011;20549;50.042;8.968;2023-07-30T04:38:15;1.70;;;1.60;;
30998;SDS011;20549;50.042;8.968;2023-07-30T04:40:42;1.57;;;1.47;;
30998;SDS011;20549;50.042;8.968;2023-07-30T04:43:08;1.65;;;1.40;;
30998;SDS011;20549;50.042;8.968;2023-07-30T04:45:35;1.70;;;1.50;;
30998;SDS011;20549;50.042;8.968;2023-07-30T04:48:01;2.12;;;1.65;;
30998;SDS011;20549;50.042;8.968;2023-07-30T04:50:28;1.40;;;1.22;;
30998;SDS011;20549;50.042;8.968;2023-07-30T04:52:55;1.55;;;1.45;;
30998;SDS011;20549;50.042;8.968;2023-07-30T04:55:21;1.50;;;1.40;;
30998;SDS011;20549;50.042;8.968;2023-07-30T04:57:48;2.30;;;1.35;;
30998;SDS011;20549;50.042;8.968;2023-07-30T05:00:14;1.57;;;1.45;;
30998;SDS011;20549;50.042;8.968;2023-07-30T05:02:41;2.85;;;2.35;;
30998;SDS011;20549;50.042;8.968;2023-07-30T05:05:08;3.08;;;1.50;;
30998;SDS011;20549;50.042;8.968;2023-07-30T05:07:34;3.08;;;1.42;;
30998;SDS011;20549;50.042;8.968;2023-07-30T05:10:02;1.98;;;1.40;;
30998;SDS011;20549;50.042;8.968;2023-07-30T05:12:27;1.40;;;1.30;;
30998;SDS011;20549;50.042;8.968;2023-07-30T05:14:54;1.50;;;1.30;;
30998;SDS011;20549;50.042;8.968;2023-07-30T05:17:20;1.50;;;1.40;;
30998;SDS011;20549;50.042;8.968;2023-07-30T05:19:47;1.60;;;1.50;;
30998;SDS011;20549;50.042;8.968;2023-07-30T05:22:14;2.35;;;1.30;;
30998;SDS011;20549;50.042;8.968;2023-07-30T05:24:40;2.35;;;1.32;;
30998;SDS011;20549;50.042;8.968;2023-07-30T05:27:07;1.55;;;1.45;;
30998;SDS011;20549;50.042;8.968;2023-07-30T05:29:33;1.57;;;1.47;;
30998;SDS011;20549;50.042;8.968;2023-07-30T05:32:00;1.60;;;1.50;;
30998;SDS011;20549;50.042;8.968;2023-07-30T05:34:27;1.20;;;1.20;;
30998;SDS011;20549;50.042;8.968;2023-07-30T05:36:53;1.60;;;1.50;;
30998;SDS011;20549;50.042;8.968;2023-07-30T05:39:20;1.40;;;1.30;;
30998;SDS011;20549;50.042;8.968;2023-07-30T05:41:46;1.42;;;1.32;;
30998;SDS011;20549;50.042;8.968;2023-07-30T05:44:13;2.42;;;1.27;;
30998;SDS011;20549;50.042;8.968;2023-07-30T05:46:40;2.12;;;1.42;;
30998;SDS011;20549;50.042;8.968;2023-07-30T05:49:06;1.47;;;1.37;;
30998;SDS011;20549;50.042;8.968;2023-07-30T05:51:33;1.60;;;1.20;;
30998;SDS011;20549;50.042;8.968;2023-07-30T05:53:59;1.40;;;1.30;;
30998;SDS011;20549;50.042;8.968;2023-07-30T05:56:26;2.15;;;1.40;;
30998;SDS011;20549;50.042;8.968;2023-07-30T05:58:52;1.10;;;1.10;;
30998;SDS011;20549;50.042;8.968;2023-07-30T06:01:19;1.27;;;1.00;;
30998;SDS011;20549;50.042;8.968;2023-07-30T06:03:46;2.37;;;1.20;;
30998;SDS011;20549;50.042;8.968;2023-07-30T06:06:12;1.32;;;1.30;;
30998;SDS011;20549;50.042;8.968;2023-07-30T06:08:39;1.37;;;1.27;;
30998;SDS011;20549;50.042;8.968;2023-07-30T06:11:05;1.20;;;1.10;;
30998;SDS011;20549;50.042;8.968;2023-07-30T06:13:32;1.57;;;1.15;;
30998;SDS011;20549;50.042;8.968;2023-07-30T06:15:59;1.12;;;1.10;;
30998;SDS011;20549;50.042;8.968;2023-07-30T06:18:25;1.85;;;1.50;;
30998;SDS011;20549;50.042;8.968;2023-07-30T06:20:52;1.27;;;1.17;;
30998;SDS011;20549;50.042;8.968;2023-07-30T06:23:18;4.08;;;1.40;;
30998;SDS011;20549;50.042;8.968;2023-07-30T06:25:45;1.17;;;1.07;;
30998;SDS011;20549;50.042;8.968;2023-07-30T06:28:12;1.32;;;1.22;;
30998;SDS011;20549;50.042;8.968;2023-07-30T06:30:38;1.15;;;1.12;;
30998;SDS011;20549;50.042;8.968;2023-07-30T06:33:05;1.67;;;1.10;;
30998;SDS011;20549;50.042;8.968;2023-07-30T06:35:31;1.45;;;0.90;;
30998;SDS011;20549;50.042;8.968;2023-07-30T06:37:58;0.98;;;0.98;;
30998;SDS011;20549;50.042;8.968;2023-07-30T06:40:24;1.50;;;1.10;;
30998;SDS011;20549;50.042;8.968;2023-07-30T06:42:51;3.22;;;1.30;;
30998;SDS011;20549;50.042;8.968;2023-07-30T06:45:18;1.00;;;1.00;;
30998;SDS011;20549;50.042;8.968;2023-07-30T06:47:44;2.27;;;0.90;;
30998;SDS011;20549;50.042;8.968;2023-07-30T06:50:11;1.00;;;1.00;;
30998;SDS011;20549;50.042;8.968;2023-07-30T06:52:37;1.37;;;1.17;;
30998;SDS011;20549;50.042;8.968;2023-07-30T06:55:04;0.80;;;0.80;;
30998;SDS011;20549;50.042;8.968;2023-07-30T06:57:31;1.52;;;0.98;;
30998;SDS011;20549;50.042;8.968;2023-07-30T06:59:57;1.17;;;0.85;;
30998;SDS011;20549;50.042;8.968;2023-07-30T07:02:24;1.30;;;1.20;;
30998;SDS011;20549;50.042;8.968;2023-07-30T07:04:50;1.65;;;1.20;;
30998;SDS011;20549;50.042;8.968;2023-07-30T07:07:17;0.98;;;0.90;;
30998;SDS011;20549;50.042;8.968;2023-07-30T07:09:44;1.62;;;1.17;;
30998;SDS011;20549;50.042;8.968;2023-07-30T07:12:10;0.80;;;0.80;;
30998;SDS011;20549;50.042;8.968;2023-07-30T07:14:37;1.00;;;1.00;;
30998;SDS011;20549;50.042;8.968;2023-07-30T07:17:03;1.27;;;0.90;;
30998;SDS011;20549;50.042;8.968;2023-07-30T07:19:30;2.60;;;1.20;;
30998;SDS011;20549;50.042;8.968;2023-07-30T07:21:57;2.55;;;1.20;;
30998;SDS011;20549;50.042;8.968;2023-07-30T07:24:23;1.20;;;1.15;;
30998;SDS011;20549;50.042;8.968;2023-07-30T07:26:50;0.90;;;0.90;;
30998;SDS011;20549;50.042;8.968;2023-07-30T07:29:16;1.70;;;1.22;;
30998;SDS011;20549;50.042;8.968;2023-07-30T07:31:44;1.98;;;1.17;;
30998;SDS011;20549;50.042;8.968;2023-07-30T07:34:09;1.82;;;1.22;;
30998;SDS011;20549;50.042;8.968;2023-07-30T07:36:36;1.17;;;1.07;;
30998;SDS011;20549;50.042;8.968;2023-07-30T07:39:03;1.90;;;1.05;;
30998;SDS011;20549;50.042;8.968;2023-07-30T07:41:29;1.60;;;1.10;;
30998;SDS011;20549;50.042;8.968;2023-07-30T07:43:56;1.77;;;0.90;;
30998;SDS011;20549;50.042;8.968;2023-07-30T07:46:22;1.52;;;1.00;;
30998;SDS011;20549;50.042;8.968;2023-07-30T07:48:49;1.40;;;1.30;;
30998;SDS011;20549;50.042;8.968;2023-07-30T07:51:16;1.02;;;1.02;;
30998;SDS011;20549;50.042;8.968;2023-07-30T07:53:42;1.17;;;1.00;;
30998;SDS011;20549;50.042;8.968;2023-07-30T07:56:09;1.55;;;1.20;;
30998;SDS011;20549;50.042;8.968;2023-07-30T07:58:35;1.40;;;1.30;;
30998;SDS011;20549;50.042;8.968;2023-07-30T08:01:02;1.20;;;1.12;;
30998;SDS011;20549;50.042;8.968;2023-07-30T08:03:29;1.67;;;1.00;;
30998;SDS011;20549;50.042;8.968;2023-07-30T08:05:55;1.15;;;1.05;;
30998;SDS011;20549;50.042;8.968;2023-07-30T08:08:23;0.90;;;0.90;;
30998;SDS011;20549;50.042;8.968;2023-07-30T08:10:48;2.80;;;1.62;;
30998;SDS011;20549;50.042;8.968;2023-07-30T08:13:15;2.42;;;1.10;;
30998;SDS011;20549;50.042;8.968;2023-07-30T08:15:42;2.25;;;0.95;;
30998;SDS011;20549;50.042;8.968;2023-07-30T08:18:08;1.20;;;1.10;;
30998;SDS011;20549;50.042;8.968;2023-07-30T08:20:35;1.00;;;1.00;;
30998;SDS011;20549;50.042;8.968;2023-07-30T08:23:01;1.10;;;1.00;;
30998;SDS011;20549;50.042;8.968;2023-07-30T08:25:28;1.12;;;1.02;;
30998;SDS011;20549;50.042;8.968;2023-07-30T08:27:54;1.37;;;1.27;;
30998;SDS011;20549;50.042;8.968;2023-07-30T08:30:21;1.30;;;1.30;;
30998;SDS011;20549;50.042;8.968;2023-07-30T08:32:48;1.30;;;1.20;;
30998;SDS011;20549;50.042;8.968;2023-07-30T08:35:14;1.10;;;1.00;;
30998;SDS011;20549;50.042;8.968;2023-07-30T08:37:41;1.50;;;1.40;;
30998;SDS011;20549;50.042;8.968;2023-07-30T08:40:08;1.02;;;1.02;;
30998;SDS011;20549;50.042;8.968;2023-07-30T08:42:34;1.30;;;1.20;;
30998;SDS011;20549;50.042;8.968;2023-07-30T08:45:01;1.40;;;1.30;;
30998;SDS011;20549;50.042;8.968;2023-07-30T08:47:28;1.40;;;1.30;;
30998;SDS011;20549;50.042;8.968;2023-07-30T08:49:54;0.98;;;0.98;;
30998;SDS011;20549;50.042;8.968;2023-07-30T08:52:21;1.70;;;0.90;;
30998;SDS011;20549;50.042;8.968;2023-07-30T08:54:47;1.00;;;1.00;;
30998;SDS011;20549;50.042;8.968;2023-07-30T08:57:14;0.90;;;0.90;;
30998;SDS011;20549;50.042;8.968;2023-07-30T08:59:42;1.30;;;1.05;;
30998;SDS011;20549;50.042;8.968;2023-07-30T09:02:10;0.80;;;0.80;;
30998;SDS011;20549;50.042;8.968;2023-07-30T09:04:34;0.93;;;0.72;;
30998;SDS011;20549;50.042;8.968;2023-07-30T09:07:00;1.25;;;0.90;;
30998;SDS011;20549;50.042;8.968;2023-07-30T09:09:27;1.10;;;0.70;;
30998;SDS011;20549;50.042;8.968;2023-07-30T09:11:54;0.70;;;0.68;;
30998;SDS011;20549;50.042;8.968;2023-07-30T09:14:20;0.60;;;0.60;;
30998;SDS011;20549;50.042;8.968;2023-07-30T09:16:47;0.72;;;0.72;;
30998;SDS011;20549;50.042;8.968;2023-07-30T09:19:16;0.62;;;0.62;;
30998;SDS011;20549;50.042;8.968;2023-07-30T09:21:42;0.50;;;0.50;;
30998;SDS011;20549;50.042;8.968;2023-07-30T09:24:09;0.60;;;0.60;;
30998;SDS011;20549;50.042;8.968;2023-07-30T09:26:42;0.68;;;0.68;;
30998;SDS011;20549;50.042;8.968;2023-07-30T09:29:08;0.70;;;0.70;;
30998;SDS011;20549;50.042;8.968;2023-07-30T09:31:47;0.55;;;0.55;;
30998;SDS011;20549;50.042;8.968;2023-07-30T09:34:16;0.50;;;0.50;;
30998;SDS011;20549;50.042;8.968;2023-07-30T09:36:43;0.78;;;0.70;;
30998;SDS011;20549;50.042;8.968;2023-07-30T09:39:24;0.72;;;0.72;;
30998;SDS011;20549;50.042;8.968;2023-07-30T09:41:48;0.80;;;0.80;;
30998;SDS011;20549;50.042;8.968;2023-07-30T09:44:16;1.12;;;1.05;;
30998;SDS011;20549;50.042;8.968;2023-07-30T09:46:44;1.17;;;1.17;;
30998;SDS011;20549;50.042;8.968;2023-07-30T09:49:10;1.27;;;1.17;;
30998;SDS011;20549;50.042;8.968;2023-07-30T09:51:40;1.42;;;1.15;;
30998;SDS011;20549;50.042;8.968;2023-07-30T09:54:06;1.50;;;1.37;;
30998;SDS011;20549;50.042;8.968;2023-07-30T09:56:33;1.10;;;1.10;;
30998;SDS011;20549;50.042;8.968;2023-07-30T09:58:59;1.20;;;1.20;;
30998;SDS011;20549;50.042;8.968;2023-07-30T10:01:26;1.00;;;1.00;;
30998;SDS011;20549;50.042;8.968;2023-07-30T10:03:53;1.10;;;1.10;;
30998;SDS011;20549;50.042;8.968;2023-07-30T10:06:19;1.52;;;1.42;;
30998;SDS011;20549;50.042;8.968;2023-07-30T10:08:46;1.92;;;1.12;;
30998;SDS011;20549;50.042;8.968;2023-07-30T10:11:12;0.75;;;0.70;;
30998;SDS011;20549;50.042;8.968;2023-07-30T10:13:39;0.90;;;0.57;;
30998;SDS011;20549;50.042;8.968;2023-07-30T10:16:09;0.42;;;0.42;;
30998;SDS011;20549;50.042;8.968;2023-07-30T10:18:40;0.50;;;0.50;;
30998;SDS011;20549;50.042;8.968;2023-07-30T10:21:07;0.65;;;0.60;;
30998;SDS011;20549;50.042;8.968;2023-07-30T10:23:33;0.50;;;0.50;;
30998;SDS011;20549;50.042;8.968;2023-07-30T10:26:08;0.37;;;0.37;;
30998;SDS011;20549;50.042;8.968;2023-07-30T10:30:57;0.40;;;0.35;;
30998;SDS011;20549;50.042;8.968;2023-07-30T10:33:23;0.40;;;0.40;;
30998;SDS011;20549;50.042;8.968;2023-07-30T10:35:52;0.25;;;0.25;;
30998;SDS011;20549;50.042;8.968;2023-07-30T10:38:17;0.70;;;0.50;;
30998;SDS011;20549;50.042;8.968;2023-07-30T10:40:59;0.40;;;0.40;;
30998;SDS011;20549;50.042;8.968;2023-07-30T10:43:29;0.50;;;0.50;;
30998;SDS011;20549;50.042;8.968;2023-07-30T10:45:56;0.40;;;0.30;;
30998;SDS011;20549;50.042;8.968;2023-07-30T10:48:33;0.55;;;0.30;;
30998;SDS011;20549;50.042;8.968;2023-07-30T10:51:00;0.55;;;0.42;;
30998;SDS011;20549;50.042;8.968;2023-07-30T10:53:25;0.42;;;0.40;;
30998;SDS011;20549;50.042;8.968;2023-07-30T10:55:52;0.33;;;0.33;;
30998;SDS011;20549;50.042;8.968;2023-07-30T10:58:19;0.47;;;0.40;;
30998;SDS011;20549;50.042;8.968;2023-07-30T11:00:45;0.85;;;0.60;;
30998;SDS011;20549;50.042;8.968;2023-07-30T11:03:12;0.50;;;0.50;;
30998;SDS011;20549;50.042;8.968;2023-07-30T11:05:38;1.82;;;0.60;;
30998;SDS011;20549;50.042;8.968;2023-07-30T11:08:05;1.15;;;1.05;;
30998;SDS011;20549;50.042;8.968;2023-07-30T11:10:32;0.42;;;0.42;;
30998;SDS011;20549;50.042;8.968;2023-07-30T11:12:58;0.93;;;0.47;;
30998;SDS011;20549;50.042;8.968;2023-07-30T11:15:25;0.40;;;0.40;;
30998;SDS011;20549;50.042;8.968;2023-07-30T11:17:51;1.98;;;0.72;;
30998;SDS011;20549;50.042;8.968;2023-07-30T11:20:24;1.25;;;0.62;;
30998;SDS011;20549;50.042;8.968;2023-07-30T11:22:50;0.75;;;0.70;;
30998;SDS011;20549;50.042;8.968;2023-07-30T11:25:17;1.00;;;0.80;;
30998;SDS011;20549;50.042;8.968;2023-07-30T11:27:47;0.53;;;0.40;;
30998;SDS011;20549;50.042;8.968;2023-07-30T11:30:13;1.00;;;0.70;;
30998;SDS011;20549;50.042;8.968;2023-07-30T11:32:41;1.15;;;0.60;;
30998;SDS011;20549;50.042;8.968;2023-07-30T11:35:09;0.70;;;0.70;;
30998;SDS011;20549;50.042;8.968;2023-07-30T11:37:35;1.32;;;0.68;;
30998;SDS011;20549;50.042;8.968;2023-07-30T11:40:02;0.62;;;0.62;;
30998;SDS011;20549;50.042;8.968;2023-07-30T11:42:29;0.90;;;0.75;;
30998;SDS011;20549;50.042;8.968;2023-07-30T11:44:55;1.52;;;0.80;;
30998;SDS011;20549;50.042;8.968;2023-07-30T11:47:22;0.70;;;0.70;;
30998;SDS011;20549;50.042;8.968;2023-07-30T11:49:55;1.50;;;0.65;;
30998;SDS011;20549;50.042;8.968;2023-07-30T11:52:24;2.17;;;0.82;;
30998;SDS011;20549;50.042;8.968;2023-07-30T11:55:00;0.82;;;0.82;;
30998;SDS011;20549;50.042;8.968;2023-07-30T11:57:35;1.47;;;1.17;;
30998;SDS011;20549;50.042;8.968;2023-07-30T11:59:58;1.47;;;1.00;;
30998;SDS011;20549;50.042;8.968;2023-07-30T12:02:25;2.05;;;0.93;;
30998;SDS011;20549;50.042;8.968;2023-07-30T12:04:51;1.32;;;1.12;;
30998;SDS011;20549;50.042;8.968;2023-07-30T12:07:22;1.22;;;0.93;;
30998;SDS011;20549;50.042;8.968;2023-07-30T12:09:47;1.25;;;1.00;;
30998;SDS011;20549;50.042;8.968;2023-07-30T12:12:14;2.08;;;1.10;;
30998;SDS011;20549;50.042;8.968;2023-07-30T12:14:54;1.05;;;0.95;;
30998;SDS011;20549;50.042;8.968;2023-07-30T12:17:16;2.25;;;1.00;;
30998;SDS011;20549;50.042;8.968;2023-07-30T12:19:43;1.50;;;0.80;;
30998;SDS011;20549;50.042;8.968;2023-07-30T12:22:09;2.00;;;1.15;;
30998;SDS011;20549;50.042;8.968;2023-07-30T12:24:36;1.12;;;0.85;;
30998;SDS011;20549;50.042;8.968;2023-07-30T12:27:02;1.05;;;0.80;;
30998;SDS011;20549;50.042;8.968;2023-07-30T12:29:29;1.62;;;0.93;;
30998;SDS011;20549;50.042;8.968;2023-07-30T12:31:56;1.20;;;0.80;;
30998;SDS011;20549;50.042;8.968;2023-07-30T12:34:22;1.25;;;0.80;;
30998;SDS011;20549;50.042;8.968;2023-07-30T12:36:49;1.50;;;0.98;;
30998;SDS011;20549;50.042;8.968;2023-07-30T12:39:15;1.27;;;1.12;;
30998;SDS011;20549;50.042;8.968;2023-07-30T12:41:42;3.20;;;1.00;;
30998;SDS011;20549;50.042;8.968;2023-07-30T12:44:09;1.60;;;1.17;;
30998;SDS011;20549;50.042;8.968;2023-07-30T12:46:35;0.80;;;0.78;;
30998;SDS011;20549;50.042;8.968;2023-07-30T12:49:02;2.58;;;1.07;;
30998;SDS011;20549;50.042;8.968;2023-07-30T12:51:28;0.72;;;0.70;;
30998;SDS011;20549;50.042;8.968;2023-07-30T12:53:55;1.72;;;1.00;;
30998;SDS011;20549;50.042;8.968;2023-07-30T12:56:22;1.45;;;1.12;;
30998;SDS011;20549;50.042;8.968;2023-07-30T12:58:48;2.37;;;0.90;;
30998;SDS011;20549;50.042;8.968;2023-07-30T13:01:15;2.55;;;1.05;;
30998;SDS011;20549;50.042;8.968;2023-07-30T13:03:41;1.22;;;0.90;;
30998;SDS011;20549;50.042;8.968;2023-07-30T13:06:08;2.40;;;0.78;;
30998;SDS011;20549;50.042;8.968;2023-07-30T13:08:34;1.25;;;1.02;;
30998;SDS011;20549;50.042;8.968;2023-07-30T13:11:01;2.87;;;1.47;;
30998;SDS011;20549;50.042;8.968;2023-07-30T13:13:28;1.30;;;0.95;;
30998;SDS011;20549;50.042;8.968;2023-07-30T13:15:54;1.70;;;1.20;;
30998;SDS011;20549;50.042;8.968;2023-07-30T13:18:21;1.07;;;0.82;;
30998;SDS011;20549;50.042;8.968;2023-07-30T13:20:47;1.85;;;0.90;;
30998;SDS011;20549;50.042;8.968;2023-07-30T13:23:14;2.00;;;0.72;;
30998;SDS011;20549;50.042;8.968;2023-07-30T13:25:41;1.30;;;0.82;;
30998;SDS011;20549;50.042;8.968;2023-07-30T13:28:07;1.67;;;1.07;;
30998;SDS011;20549;50.042;8.968;2023-07-30T13:30:34;2.10;;;0.90;;
30998;SDS011;20549;50.042;8.968;2023-07-30T13:33:00;0.70;;;0.70;;
30998;SDS011;20549;50.042;8.968;2023-07-30T13:35:27;1.60;;;0.98;;
30998;SDS011;20549;50.042;8.968;2023-07-30T13:37:54;2.30;;;1.30;;
30998;SDS011;20549;50.042;8.968;2023-07-30T13:40:20;1.12;;;1.00;;
30998;SDS011;20549;50.042;8.968;2023-07-30T13:42:47;1.02;;;1.02;;
30998;SDS011;20549;50.042;8.968;2023-07-30T13:45:13;1.20;;;0.98;;
30998;SDS011;20549;50.042;8.968;2023-07-30T13:47:40;1.15;;;1.07;;
30998;SDS011;20549;50.042;8.968;2023-07-30T13:50:07;1.62;;;0.88;;
30998;SDS011;20549;50.042;8.968;2023-07-30T13:52:33;1.32;;;1.20;;
30998;SDS011;20549;50.042;8.968;2023-07-30T13:55:00;1.65;;;0.88;;
30998;SDS011;20549;50.042;8.968;2023-07-30T13:57:26;2.05;;;1.17;;
30998;SDS011;20549;50.042;8.968;2023-07-30T13:59:53;1.07;;;1.00;;
30998;SDS011;20549;50.042;8.968;2023-07-30T14:02:19;1.55;;;1.20;;
30998;SDS011;20549;50.042;8.968;2023-07-30T14:04:46;2.72;;;1.10;;
30998;SDS011;20549;50.042;8.968;2023-07-30T14:07:13;0.80;;;0.80;;
30998;SDS011;20549;50.042;8.968;2023-07-30T14:09:39;1.45;;;1.02;;
30998;SDS011;20549;50.042;8.968;2023-07-30T14:12:06;1.45;;;1.30;;
30998;SDS011;20549;50.042;8.968;2023-07-30T14:14:32;2.12;;;0.90;;
30998;SDS011;20549;50.042;8.968;2023-07-30T14:16:59;1.05;;;0.90;;
30998;SDS011;20549;50.042;8.968;2023-07-30T14:19:26;1.95;;;1.00;;
30998;SDS011;20549;50.042;8.968;2023-07-30T14:21:52;3.05;;;1.02;;
30998;SDS011;20549;50.042;8.968;2023-07-30T14:24:19;1.42;;;0.90;;
30998;SDS011;20549;50.042;8.968;2023-07-30T14:26:45;1.02;;;0.90;;
30998;SDS011;20549;50.042;8.968;2023-07-30T14:29:12;2.20;;;1.30;;
30998;SDS011;20549;50.042;8.968;2023-07-30T14:31:39;0.75;;;0.75;;
30998;SDS011;20549;50.042;8.968;2023-07-30T14:34:05;1.05;;;0.82;;
30998;SDS011;20549;50.042;8.968;2023-07-30T14:36:32;1.00;;;0.90;;
30998;SDS011;20549;50.042;8.968;2023-07-30T14:38:58;1.98;;;1.17;;
30998;SDS011;20549;50.042;8.968;2023-07-30T14:41:25;1.10;;;0.93;;
30998;SDS011;20549;50.042;8.968;2023-07-30T14:43:51;1.40;;;0.90;;
30998;SDS011;20549;50.042;8.968;2023-07-30T14:46:18;1.50;;;1.07;;
30998;SDS011;20549;50.042;8.968;2023-07-30T14:48:45;2.40;;;1.20;;